map of UBP home
UBP - Airport
Location
City:  Ubon Ratchathani, Ubon Ratchathani, Thailand
ICAO:VTUU
IATA:UBP

Details
Type:Airport (Aerodrome, Airfield)
Use:Public/Civil, Military
Latitude:1515'05"N (15.251278)
Longitude:10452'13"E (104.870231)
Datum:WGS 1984
Elevation:406 ft (124 m)
Variation:0.85W (WMM2015 magnetic declination)
-0.02 annual change
Runways:1
Longest:9848 × 148 ft (3002 × 45 m), paved

Time
Time Zone:UTC+7
Local Time:

Weather
METAR:VTUU 160700Z 02012KT 340V050 9999 FEW035 31/20 Q1014 NOSIG
TAF:VTUU 160500Z 1606/1706 03014KT 9999 FEW030
TEMPO 1608/1611 04015G25KT
BECMG 1616/1618 03009KT
BECMG 1700/1702 04012KT

Related Locations
Nearby:
Farthest:SJA: 12449 mi / 20034 km
San Juan de Marcona [San Juan de Marcona Airport], ICA, PE

Find:

   beyond  
but within

Other Information
Maps:
NOTAMs:
Links:
Sources:

  
  • flag of Thailand
  

Sectional Chart

Flight Planning
at skyvector.com

Satellite Image

Google Maps Satellite view

 

Copyright © 2004-2018 Karl L. Swartz. All rights reserved.
The Great Circle Mapper name and logo are trademarks of the Great Circle Mapper.
All other trademarks mentioned herein belong to their respective owners.
Please see credits for attibutions and further copyright information.

  Follow gcmap on Facebook Follow gcmap on Twitter Follow gcmap on Google+ GCmap on LinkedIn

hCard Microformat

Geo Microformat